CheckWX is a tool to help pilots better visualize weather data.  It is not intended as a substitute for an official pre-flight weather briefing.

16:49:33 UTC

LDSP METAR
Split Airport
Split, Croatia
Current

20 mins ago

LDSP 161630Z 30006KT 220V350 9999 FEW040 29/12 Q1011 NOSIG
Observed
Jul-16 @ 16:30 UTC
Wind
  • 300° at 6 KTS
Visibility
10,000+ meters
Flight Rules
VFR
Cloud Levels
  • Few at 4,000' AGL
Temperature
29°C / 84°F
Dewpoint
12°C / 54°F
Humidity
35%
Altimeter
29.85" Hg
Pressure
1010.92 hPa
Previous

50 mins ago

LDSP 161600Z 23010KT 210V270 9999 FEW040 28/14 Q1011 BECMG 32008KT
Observed
Jul-16 @ 16:00 UTC
Wind
  • 230° at 10 KTS
Visibility
10,000+ meters
Flight Rules
VFR
Cloud Levels
  • Few at 4,000' AGL
Temperature
28°C / 82°F
Dewpoint
14°C / 57°F
Humidity
42%
Altimeter
29.85" Hg
Pressure
1010.92 hPa
Previous

1 hour ago

LDSP 161530Z 23013KT 9999 FEW040 28/13 Q1011 NOSIG
Observed
Jul-16 @ 15:30 UTC
Wind
  • 230° at 13 KTS
Visibility
10,000+ meters
Flight Rules
VFR
Cloud Levels
  • Few at 4,000' AGL
Temperature
28°C / 82°F
Dewpoint
13°C / 55°F
Humidity
40%
Altimeter
29.85" Hg
Pressure
1010.92 hPa